Suederoog — ZDHC8 — position and weather

sailwx.info

Track history (hours):
 
Tides and Currents Weather Stations Pressure Air Temp Water Temp Dewpoint Dewpoint Depression Visibility Wind Speed Wind Dir Waves Ship Positions

Suederoog

Last reported at 2016-Feb-11 16:33 UTC. Time now 2016-Feb-11 17:09 UTC.
Position N 59°60' E 026°39'.

Length 161 m; draft 9 m.

Type: Ship (hazmat cat A). MMSI: 236300000.

Date/timePositionNaut miles runAvg speedWind from/ knotsBaromVisibWave heightAir tempDewpointWater temp
2016-Feb-11 16:33N 59°60' E 026°39'7017.2
2016-Feb-11 12:30N 59°43' E 024°24'1917.5
2016-Feb-11 11:23N 59°36' E 023°48'37217.0
2016-Feb-10 13:33N 55°32' E 015°06'1817.8
2016-Feb-10 12:34N 55°24' E 014°39'1717.3
2016-Feb-10 11:33N 55°10' E 014°20'1716.5
2016-Feb-10 10:34N 54°59' E 013°58'1817.8
2016-Feb-10 09:32N 54°53' E 013°28'2717.8
2016-Feb-10 08:03N 54°46' E 012°44'917.8
2016-Feb-10 07:34N 54°41' E 012°31'1716.7
2016-Feb-10 06:33N 54°28' E 012°13'1616.1
2016-Feb-10 05:33N 54°25' E 011°46'1817.9
2016-Feb-10 04:33N 54°33' E 011°19'1817.6
2016-Feb-10 03:33N 54°34' E 010°48'1715.8
2016-Feb-10 02:27N 54°30' E 010°19'1011.0
2016-Feb-10 01:33N 54°22' E 010°09'2 2.2
2016-Feb-10 00:33N 54°22' E 010°05'6 5.9
2016-Feb-09 23:33N 54°21' E 009°55'5 4.8
2016-Feb-09 22:33N 54°22' E 009°47'6 6.2
2016-Feb-09 21:32N 54°17' E 009°39'5 4.5
2016-Feb-09 20:27N 54°13' E 009°35'13 6.2
2016-Feb-09 18:20N 54°04' E 009°19'5 7.0
2016-Feb-09 17:33N 53°59' E 009°17'4 3.2
2016-Feb-09 16:28N 53°56' E 009°13'4 3.2
2016-Feb-09 15:21N 53°54' E 009°09'1 1.4
2016-Feb-09 14:25N 53°53' E 009°07'8 9.6
2016-Feb-09 13:33N 53°51' E 009°20'1514.2
2016-Feb-09 12:30N 53°38' E 009°32'1212.5
2016-Feb-09 11:33N 53°33' E 009°51'3 2.7
2016-Feb-09 10:33N 53°32' E 009°55'0 0.0
2016-Feb-09 09:33N 53°32' E 009°55'0 0.0
2016-Feb-09 08:33N 53°32' E 009°55'0 0.0
2016-Feb-09 07:33N 53°32' E 009°55'0 0.0
2016-Feb-09 06:33N 53°32' E 009°55'0 0.0
2016-Feb-09 05:33N 53°32' E 009°55'0 0.0
2016-Feb-09 04:30N 53°32' E 009°55'0 0.0
2016-Feb-09 03:33N 53°32' E 009°55'0 0.0
2016-Feb-09 02:33N 53°32' E 009°55'0 0.0
2016-Feb-09 01:33N 53°32' E 009°55'0 0.4
2016-Feb-09 00:32N 53°32' E 009°54'2 1.6
2016-Feb-08 23:33N 53°32' E 009°57'0 0.0
2016-Feb-08 22:33N 53°32' E 009°57'0 0.0
2016-Feb-08 21:33N 53°32' E 009°57'0 0.0
2016-Feb-08 20:33N 53°32' E 009°57'0 0.0
2016-Feb-08 19:33N 53°32' E 009°57'0 0.0
2016-Feb-08 18:33N 53°32' E 009°57'0 0.0
2016-Feb-08 17:33N 53°32' E 009°57'0 0.0
2016-Feb-08 16:33N 53°32' E 009°57'0 0.0
2016-Feb-08 15:33N 53°32' E 009°57'0 0.0
2016-Feb-08 14:33N 53°32' E 009°57'0 0.0
2016-Feb-08 13:27N 53°32' E 009°57'0 0.0
2016-Feb-08 12:33N 53°32' E 009°57'0 0.0
2016-Feb-08 11:33N 53°32' E 009°57'0 0.0
2016-Feb-08 10:33N 53°32' E 009°57'0 0.0
2016-Feb-08 09:33N 53°32' E 009°57'0 0.0
2016-Feb-08 08:33N 53°32' E 009°57'0 0.0
2016-Feb-08 07:33N 53°32' E 009°57'0 0.0
2016-Feb-08 06:33N 53°32' E 009°57'0 0.0
2016-Feb-08 05:33N 53°32' E 009°57'0 0.0
2016-Feb-08 04:33N 53°32' E 009°57'0 0.0
2016-Feb-08 03:33N 53°32' E 009°57'0 0.0
2016-Feb-08 02:33N 53°32' E 009°57'5 4.7
2016-Feb-08 01:34N 53°33' E 009°49'1413.1
2016-Feb-08 00:28N 53°41' E 009°30'1616.6
2016-Feb-07 23:30N 53°53' E 009°10'1 1.3
2016-Feb-07 22:33N 53°54' E 009°09'4 3.9
2016-Feb-07 21:31N 53°57' E 009°14'19 6.2
2016-Feb-07 18:27N 54°12' E 009°33'2 2.3
2016-Feb-07 17:33N 54°13' E 009°36'6 5.7
2016-Feb-07 16:34N 54°18' E 009°41'6 6.4
2016-Feb-07 15:33N 54°22' E 009°50'2 1.8
2016-Feb-07 14:33N 54°21' E 009°53'4 3.8
2016-Feb-07 13:33N 54°21' E 009°59'5 4.5
2016-Feb-07 12:33N 54°22' E 010°07'2 2.1
2016-Feb-07 11:33N 54°22' E 010°10'1110.0
2016-Feb-07 10:29N 54°31' E 010°21'1111.1
2016-Feb-07 09:32N 54°35' E 010°38'1111.6
2016-Feb-07 08:33N 54°36' E 010°58'1211.8
2016-Feb-07 07:33N 54°34' E 011°18'1212.3
2016-Feb-07 06:33N 54°29' E 011°37'1212.1
2016-Feb-07 05:33N 54°26' E 011°57'2010.1
2016-Feb-07 03:33N 54°39' E 012°24'2612.5
2016-Feb-07 01:29N 54°52' E 013°03'1616.7
2016-Feb-07 00:32N 54°58' E 013°28'1616.2
2016-Feb-06 23:33N 55°03' E 013°54'1515.5
2016-Feb-06 22:33N 55°13' E 014°15'1616.4
2016-Feb-06 21:34N 55°26' E 014°33'1616.1
2016-Feb-06 20:34N 55°34' E 014°57'1716.4
2016-Feb-06 19:30N 55°43' E 015°24'35315.8
2016-Feb-05 21:10N 59°40' E 023°33'1016.4
2016-Feb-05 20:32N 59°42' E 023°53'8016.0
2016-Feb-05 15:34N 60°11' E 026°22'1414.1
2016-Feb-05 14:34N 60°22' E 026°40'8 7.9
2016-Feb-05 13:31N 60°25' E 026°55'0 0.0
2016-Feb-05 12:31N 60°25' E 026°55'0 0.0
2016-Feb-05 11:31N 60°25' E 026°55'0 0.0
2016-Feb-05 10:28N 60°25' E 026°55'0 0.0
2016-Feb-05 09:31N 60°25' E 026°55'0 0.0
2016-Feb-05 08:31N 60°25' E 026°55'0 0.0
2016-Feb-05 07:31N 60°25' E 026°55'0 0.0
2016-Feb-05 06:31N 60°25' E 026°55'0 0.0
2016-Feb-05 05:31N 60°25' E 026°55'0 0.0
2016-Feb-05 04:31N 60°25' E 026°55'0 0.0
2016-Feb-05 03:31N 60°25' E 026°55'0 0.0
2016-Feb-05 02:31N 60°25' E 026°55'0 0.0
2016-Feb-05 01:31N 60°25' E 026°55'0 0.0
2016-Feb-05 00:31N 60°25' E 026°55'0 0.0
2016-Feb-04 23:31N 60°25' E 026°55'0 0.0
2016-Feb-04 22:31N 60°25' E 026°55'0 0.0
2016-Feb-04 21:31N 60°25' E 026°55'0 0.0
2016-Feb-04 20:31N 60°25' E 026°55'0 0.0
2016-Feb-04 19:33N 60°25' E 026°55'10 9.8
2016-Feb-04 18:34N 60°20' E 026°38'1312.9
2016-Feb-04 17:33N 60°09' E 026°25'2217.7
2016-Feb-04 16:19N 60°00' E 027°05'1418.6
2016-Feb-04 15:34N 60°07' E 027°29'1717.2
2016-Feb-04 14:34N 60°10' E 028°03'1818.0
2016-Feb-04 13:34N 60°03' E 028°37'3712.3
2016-Feb-04 10:33N 59°57' E 029°50'1110.6
2016-Feb-04 09:33N 59°53' E 030°10'2 2.0
2016-Feb-04 08:33N 59°54' E 030°14'0 0.0
2016-Feb-04 07:33N 59°54' E 030°14'0 0.0
2016-Feb-04 06:33N 59°54' E 030°14'0 0.0
2016-Feb-04 05:33N 59°54' E 030°14'0 0.0
2016-Feb-04 04:33N 59°54' E 030°14'0 0.0
2016-Feb-04 03:33N 59°54' E 030°14'0 0.0
2016-Feb-04 02:33N 59°54' E 030°14'0 0.0
2016-Feb-04 01:33N 59°54' E 030°14'0 0.0
2016-Feb-04 00:33N 59°54' E 030°14'0 0.0
2016-Feb-03 23:33N 59°54' E 030°14'0 0.0
2016-Feb-03 22:33N 59°54' E 030°14'1 1.3
2016-Feb-03 21:31N 59°52' E 030°12'0 0.0
2016-Feb-03 20:31N 59°52' E 030°12'0 0.0
2016-Feb-03 19:31N 59°52' E 030°12'0 0.0
2016-Feb-03 18:31N 59°52' E 030°12'0 0.0
2016-Feb-03 17:31N 59°52' E 030°12'0 0.0
2016-Feb-03 16:31N 59°52' E 030°12'0 0.0
2016-Feb-03 15:31N 59°52' E 030°12'0 0.0
2016-Feb-03 14:33N 59°52' E 030°12'0 0.1
2016-Feb-03 13:33N 59°52' E 030°12'0 0.0
2016-Feb-03 12:33N 59°52' E 030°12'0 0.0
2016-Feb-03 11:33N 59°52' E 030°12'0 0.0
2016-Feb-03 10:33N 59°52' E 030°12'0 0.0
2016-Feb-03 09:33N 59°52' E 030°12'0 0.0
2016-Feb-03 08:33N 59°52' E 030°12'0 0.0
2016-Feb-03 07:33N 59°52' E 030°12'0 0.0
2016-Feb-03 06:33N 59°52' E 030°12'0 0.0
2016-Feb-03 05:33N 59°52' E 030°12'0 0.0
2016-Feb-03 04:30N 59°52' E 030°12'0 0.0
2016-Feb-03 03:33N 59°52' E 030°12'4 4.4
2016-Feb-03 02:33N 59°54' E 030°05'40 2.5
2016-Feb-02 10:31N 60°02' E 028°45'1212.1
2016-Feb-02 09:33N 60°04' E 028°23'1212.0
2016-Feb-02 08:32N 60°09' E 028°00'1211.5
2016-Feb-02 07:31N 60°08' E 027°37'1212.2
2016-Feb-02 06:33N 60°02' E 027°17'1110.9
2016-Feb-02 05:33N 59°58' E 026°56'1110.7
2016-Feb-02 04:31N 59°59' E 026°34'8011.3
2016-Feb-01 21:28N 59°39' E 023°60'1111.8
2016-Feb-01 20:34N 59°36' E 023°40'  
Track history (hours):
 
Tides and Currents Weather Stations Pressure Air Temp Water Temp Dewpoint Dewpoint Depression Visibility Wind Speed Wind Dir Waves Ship Positions

Suederoog

Last reported at 2016-Feb-11 16:33 UTC. Time now 2016-Feb-11 17:09 UTC.
Position N 59°60' E 026°39'.

Length 161 m; draft 9 m.

Type: Ship (hazmat cat A). MMSI: 236300000.

Date/timePositionNaut miles runAvg speedWind from/ knotsBaromVisibWave heightAir tempDewpointWater temp
2016-Feb-11 16:33N 59°60' E 026°39'7017.2
2016-Feb-11 12:30N 59°43' E 024°24'1917.5
2016-Feb-11 11:23N 59°36' E 023°48'37217.0
2016-Feb-10 13:33N 55°32' E 015°06'1817.8
2016-Feb-10 12:34N 55°24' E 014°39'1717.3
2016-Feb-10 11:33N 55°10' E 014°20'1716.5
2016-Feb-10 10:34N 54°59' E 013°58'1817.8
2016-Feb-10 09:32N 54°53' E 013°28'2717.8
2016-Feb-10 08:03N 54°46' E 012°44'917.8
2016-Feb-10 07:34N 54°41' E 012°31'1716.7
2016-Feb-10 06:33N 54°28' E 012°13'1616.1
2016-Feb-10 05:33N 54°25' E 011°46'1817.9
2016-Feb-10 04:33N 54°33' E 011°19'1817.6
2016-Feb-10 03:33N 54°34' E 010°48'1715.8
2016-Feb-10 02:27N 54°30' E 010°19'1011.0
2016-Feb-10 01:33N 54°22' E 010°09'2 2.2
2016-Feb-10 00:33N 54°22' E 010°05'6 5.9
2016-Feb-09 23:33N 54°21' E 009°55'5 4.8
2016-Feb-09 22:33N 54°22' E 009°47'6 6.2
2016-Feb-09 21:32N 54°17' E 009°39'5 4.5
2016-Feb-09 20:27N 54°13' E 009°35'13 6.2
2016-Feb-09 18:20N 54°04' E 009°19'5 7.0
2016-Feb-09 17:33N 53°59' E 009°17'4 3.2
2016-Feb-09 16:28N 53°56' E 009°13'4 3.2
2016-Feb-09 15:21N 53°54' E 009°09'1 1.4
2016-Feb-09 14:25N 53°53' E 009°07'8 9.6
2016-Feb-09 13:33N 53°51' E 009°20'1514.2
2016-Feb-09 12:30N 53°38' E 009°32'1212.5
2016-Feb-09 11:33N 53°33' E 009°51'3 2.7
2016-Feb-09 10:33N 53°32' E 009°55'0 0.0
2016-Feb-09 09:33N 53°32' E 009°55'0 0.0
2016-Feb-09 08:33N 53°32' E 009°55'0 0.0
2016-Feb-09 07:33N 53°32' E 009°55'0 0.0
2016-Feb-09 06:33N 53°32' E 009°55'0 0.0
2016-Feb-09 05:33N 53°32' E 009°55'0 0.0
2016-Feb-09 04:30N 53°32' E 009°55'0 0.0
2016-Feb-09 03:33N 53°32' E 009°55'0 0.0
2016-Feb-09 02:33N 53°32' E 009°55'0 0.0
2016-Feb-09 01:33N 53°32' E 009°55'0 0.4
2016-Feb-09 00:32N 53°32' E 009°54'2 1.6
2016-Feb-08 23:33N 53°32' E 009°57'0 0.0
2016-Feb-08 22:33N 53°32' E 009°57'0 0.0
2016-Feb-08 21:33N 53°32' E 009°57'0 0.0
2016-Feb-08 20:33N 53°32' E 009°57'0 0.0
2016-Feb-08 19:33N 53°32' E 009°57'0 0.0
2016-Feb-08 18:33N 53°32' E 009°57'0 0.0
2016-Feb-08 17:33N 53°32' E 009°57'0 0.0
2016-Feb-08 16:33N 53°32' E 009°57'0 0.0
2016-Feb-08 15:33N 53°32' E 009°57'0 0.0
2016-Feb-08 14:33N 53°32' E 009°57'0 0.0
2016-Feb-08 13:27N 53°32' E 009°57'0 0.0
2016-Feb-08 12:33N 53°32' E 009°57'0 0.0
2016-Feb-08 11:33N 53°32' E 009°57'0 0.0
2016-Feb-08 10:33N 53°32' E 009°57'0 0.0
2016-Feb-08 09:33N 53°32' E 009°57'0 0.0
2016-Feb-08 08:33N 53°32' E 009°57'0 0.0
2016-Feb-08 07:33N 53°32' E 009°57'0 0.0
2016-Feb-08 06:33N 53°32' E 009°57'0 0.0
2016-Feb-08 05:33N 53°32' E 009°57'0 0.0
2016-Feb-08 04:33N 53°32' E 009°57'0 0.0
2016-Feb-08 03:33N 53°32' E 009°57'0 0.0
2016-Feb-08 02:33N 53°32' E 009°57'5 4.7
2016-Feb-08 01:34N 53°33' E 009°49'1413.1
2016-Feb-08 00:28N 53°41' E 009°30'1616.6
2016-Feb-07 23:30N 53°53' E 009°10'1 1.3
2016-Feb-07 22:33N 53°54' E 009°09'4 3.9
2016-Feb-07 21:31N 53°57' E 009°14'19 6.2
2016-Feb-07 18:27N 54°12' E 009°33'2 2.3
2016-Feb-07 17:33N 54°13' E 009°36'6 5.7
2016-Feb-07 16:34N 54°18' E 009°41'6 6.4
2016-Feb-07 15:33N 54°22' E 009°50'2 1.8
2016-Feb-07 14:33N 54°21' E 009°53'4 3.8
2016-Feb-07 13:33N 54°21' E 009°59'5 4.5
2016-Feb-07 12:33N 54°22' E 010°07'2 2.1
2016-Feb-07 11:33N 54°22' E 010°10'1110.0
2016-Feb-07 10:29N 54°31' E 010°21'1111.1
2016-Feb-07 09:32N 54°35' E 010°38'1111.6
2016-Feb-07 08:33N 54°36' E 010°58'1211.8
2016-Feb-07 07:33N 54°34' E 011°18'1212.3
2016-Feb-07 06:33N 54°29' E 011°37'1212.1
2016-Feb-07 05:33N 54°26' E 011°57'2010.1
2016-Feb-07 03:33N 54°39' E 012°24'2612.5
2016-Feb-07 01:29N 54°52' E 013°03'1616.7
2016-Feb-07 00:32N 54°58' E 013°28'1616.2
2016-Feb-06 23:33N 55°03' E 013°54'1515.5
2016-Feb-06 22:33N 55°13' E 014°15'1616.4
2016-Feb-06 21:34N 55°26' E 014°33'1616.1
2016-Feb-06 20:34N 55°34' E 014°57'1716.4
2016-Feb-06 19:30N 55°43' E 015°24'35315.8
2016-Feb-05 21:10N 59°40' E 023°33'1016.4
2016-Feb-05 20:32N 59°42' E 023°53'8016.0
2016-Feb-05 15:34N 60°11' E 026°22'1414.1
2016-Feb-05 14:34N 60°22' E 026°40'8 7.9
2016-Feb-05 13:31N 60°25' E 026°55'0 0.0
2016-Feb-05 12:31N 60°25' E 026°55'0 0.0
2016-Feb-05 11:31N 60°25' E 026°55'0 0.0
2016-Feb-05 10:28N 60°25' E 026°55'0 0.0
2016-Feb-05 09:31N 60°25' E 026°55'0 0.0
2016-Feb-05 08:31N 60°25' E 026°55'0 0.0
2016-Feb-05 07:31N 60°25' E 026°55'0 0.0
2016-Feb-05 06:31N 60°25' E 026°55'0 0.0
2016-Feb-05 05:31N 60°25' E 026°55'0 0.0
2016-Feb-05 04:31N 60°25' E 026°55'0 0.0
2016-Feb-05 03:31N 60°25' E 026°55'0 0.0
2016-Feb-05 02:31N 60°25' E 026°55'0 0.0
2016-Feb-05 01:31N 60°25' E 026°55'0 0.0
2016-Feb-05 00:31N 60°25' E 026°55'0 0.0
2016-Feb-04 23:31N 60°25' E 026°55'0 0.0
2016-Feb-04 22:31N 60°25' E 026°55'0 0.0
2016-Feb-04 21:31N 60°25' E 026°55'0 0.0
2016-Feb-04 20:31N 60°25' E 026°55'0 0.0
2016-Feb-04 19:33N 60°25' E 026°55'10 9.8
2016-Feb-04 18:34N 60°20' E 026°38'1312.9
2016-Feb-04 17:33N 60°09' E 026°25'2217.7
2016-Feb-04 16:19N 60°00' E 027°05'1418.6
2016-Feb-04 15:34N 60°07' E 027°29'1717.2
2016-Feb-04 14:34N 60°10' E 028°03'1818.0
2016-Feb-04 13:34N 60°03' E 028°37'3712.3
2016-Feb-04 10:33N 59°57' E 029°50'1110.6
2016-Feb-04 09:33N 59°53' E 030°10'2 2.0
2016-Feb-04 08:33N 59°54' E 030°14'0 0.0
2016-Feb-04 07:33N 59°54' E 030°14'0 0.0
2016-Feb-04 06:33N 59°54' E 030°14'0 0.0
2016-Feb-04 05:33N 59°54' E 030°14'0 0.0
2016-Feb-04 04:33N 59°54' E 030°14'0 0.0
2016-Feb-04 03:33N 59°54' E 030°14'0 0.0
2016-Feb-04 02:33N 59°54' E 030°14'0 0.0
2016-Feb-04 01:33N 59°54' E 030°14'0 0.0
2016-Feb-04 00:33N 59°54' E 030°14'0 0.0
2016-Feb-03 23:33N 59°54' E 030°14'0 0.0
2016-Feb-03 22:33N 59°54' E 030°14'1 1.3
2016-Feb-03 21:31N 59°52' E 030°12'0 0.0
2016-Feb-03 20:31N 59°52' E 030°12'0 0.0
2016-Feb-03 19:31N 59°52' E 030°12'0 0.0
2016-Feb-03 18:31N 59°52' E 030°12'0 0.0
2016-Feb-03 17:31N 59°52' E 030°12'0 0.0
2016-Feb-03 16:31N 59°52' E 030°12'0 0.0
2016-Feb-03 15:31N 59°52' E 030°12'0 0.0
2016-Feb-03 14:33N 59°52' E 030°12'0 0.1
2016-Feb-03 13:33N 59°52' E 030°12'0 0.0
2016-Feb-03 12:33N 59°52' E 030°12'0 0.0
2016-Feb-03 11:33N 59°52' E 030°12'0 0.0
2016-Feb-03 10:33N 59°52' E 030°12'0 0.0
2016-Feb-03 09:33N 59°52' E 030°12'0 0.0
2016-Feb-03 08:33N 59°52' E 030°12'0 0.0
2016-Feb-03 07:33N 59°52' E 030°12'0 0.0
2016-Feb-03 06:33N 59°52' E 030°12'0 0.0
2016-Feb-03 05:33N 59°52' E 030°12'0 0.0
2016-Feb-03 04:30N 59°52' E 030°12'0 0.0
2016-Feb-03 03:33N 59°52' E 030°12'4 4.4
2016-Feb-03 02:33N 59°54' E 030°05'40 2.5
2016-Feb-02 10:31N 60°02' E 028°45'1212.1
2016-Feb-02 09:33N 60°04' E 028°23'1212.0
2016-Feb-02 08:32N 60°09' E 028°00'1211.5
2016-Feb-02 07:31N 60°08' E 027°37'1212.2
2016-Feb-02 06:33N 60°02' E 027°17'1110.9
2016-Feb-02 05:33N 59°58' E 026°56'1110.7
2016-Feb-02 04:31N 59°59' E 026°34'8011.3
2016-Feb-01 21:28N 59°39' E 023°60'1111.8
2016-Feb-01 20:34N 59°36' E 023°40'  

Dump ship's entire track history